Time;durP1;ratioP1;P1;durP2;ratioP2;P2;SDS_P1;SDS_P2;PMS_P1;PMS_P2;Temp;Humidity;BMP_temperature;BMP_pressure;BME280_temperature;BME280_humidity;BME280_pressure;Samples;Min_cycle;Max_cycle;Signal;HPM_P1;HPM_P2
2022/07/31 00:01:35;;;;;;;;;;;21.50;96.60;;;;;;4994638;28;19930;-83
2022/07/31 00:04:08;;;;;;;;;;;21.60;97.40;;;;;;4979368;28;19926;-82
2022/07/31 00:06:40;;;;;;;;;;;21.50;97.60;;;;;;4962819;28;19931;-84
2022/07/31 00:09:09;;;;;;;;;;;23.50;98.30;;;;;;4986751;28;19930;-84
2022/07/31 00:12:00;;;;;;;;;;;21.50;96.60;;;;;;4973233;28;19933;-83
2022/07/31 00:14:28;;;;;;;;;;;21.50;96.30;;;;;;4982933;28;19932;-82
2022/07/31 00:16:56;;;;;;;;;;;21.50;97.10;;;;;;4977914;28;19930;-84
2022/07/31 00:19:28;;;;;;;;;;;22.20;97.80;;;;;;4956072;28;19933;-84
2022/07/31 00:21:57;;;;;;;;;;;22.20;97.60;;;;;;4972131;28;19930;-83
2022/07/31 00:24:25;;;;;;;;;;;21.40;96.60;;;;;;4983916;28;19926;-82
2022/07/31 00:27:06;;;;;;;;;;;21.70;96.90;;;;;;4972108;28;19926;-84
2022/07/31 00:29:35;;;;;;;;;;;21.40;97.50;;;;;;4975987;28;19930;-82
2022/07/31 00:32:03;;;;;;;;;;;21.50;96.80;;;;;;4976912;28;19934;-83
2022/07/31 00:34:37;;;;;;;;;;;21.60;96.90;;;;;;4962369;28;20016;-83
2022/07/31 00:37:05;;;;;;;;;;;21.30;96.60;;;;;;4994878;28;19933;-82
2022/07/31 00:39:33;;;;;;;;;;;21.30;97.10;;;;;;4977553;28;20398;-82
2022/07/31 00:42:04;;;;;;;;;;;21.30;97.40;;;;;;4993104;28;19930;-83
2022/07/31 00:44:39;;;;;;;;;;;21.50;97.30;;;;;;4982021;28;19937;-84
2022/07/31 00:47:07;;;;;;;;;;;21.50;97.50;;;;;;4976236;28;19943;-83
2022/07/31 00:49:36;;;;;;;;;;;21.30;97.00;;;;;;4979012;28;19930;-83
2022/07/31 00:52:05;;;;;;;;;;;21.30;97.60;;;;;;4982632;28;19933;-82
2022/07/31 00:54:33;;;;;;;;;;;21.30;97.20;;;;;;4962096;28;19941;-83
2022/07/31 00:57:06;;;;;;;;;;;21.20;97.10;;;;;;4966487;28;19936;-83
2022/07/31 00:59:45;;;;;;;;;;;21.30;96.80;;;;;;4962947;28;19926;-82
2022/07/31 01:02:13;;;;;;;;;;;21.30;96.60;;;;;;4962657;28;19926;-83
2022/07/31 01:04:42;;;;;;;;;;;21.30;96.80;;;;;;4950296;28;19941;-83
2022/07/31 01:07:12;;;;;;;;;;;21.30;96.90;;;;;;4986430;28;19930;-83
2022/07/31 01:09:43;;;;;;;;;;;21.20;96.90;;;;;;5017579;28;19926;-82
2022/07/31 01:12:21;;;;;;;;;;;21.20;96.80;;;;;;4966681;28;19941;-82
2022/07/31 01:14:51;;;;;;;;;;;20.60;96.80;;;;;;4966200;28;19926;-82
2022/07/31 01:17:21;;;;;;;;;;;21.10;96.90;;;;;;4981441;28;19926;-82
2022/07/31 01:19:50;;;;;;;;;;;21.30;97.10;;;;;;4970257;28;19940;-82
2022/07/31 01:22:39;;;;;;;;;;;21.40;97.20;;;;;;4981770;28;19937;-82
2022/07/31 01:25:16;;;;;;;;;;;21.20;97.10;;;;;;4996292;28;20008;-83
2022/07/31 01:27:55;;;;;;;;;;;21.20;97.00;;;;;;5000906;28;19941;-81
2022/07/31 01:30:27;;;;;;;;;;;21.20;97.10;;;;;;4999755;28;19926;-81
2022/07/31 01:33:01;;;;;;;;;;;21.70;97.10;;;;;;4983579;28;19926;-83
2022/07/31 01:35:33;;;;;;;;;;;21.10;97.00;;;;;;5003807;28;20393;-83
2022/07/31 01:38:10;;;;;;;;;;;20.90;97.30;;;;;;4980162;28;19927;-83
2022/07/31 01:40:49;;;;;;;;;;;21.10;97.10;;;;;;4975504;28;19930;-83
2022/07/31 01:43:24;;;;;;;;;;;21.30;97.10;;;;;;4996083;28;19935;-83
2022/07/31 01:46:44;;;;;;;;;;;21.70;97.10;;;;;;4979236;28;19927;-81
2022/07/31 01:49:27;;;;;;;;;;;21.20;97.00;;;;;;4985853;28;19936;-83
2022/07/31 01:51:55;;;;;;;;;;;21.30;97.40;;;;;;4986336;28;19926;-83
2022/07/31 01:54:32;;;;;;;;;;;21.10;97.50;;;;;;4999623;28;19937;-83
2022/07/31 01:57:01;;;;;;;;;;;21.10;97.60;;;;;;4969156;28;19925;-82
2022/07/31 01:59:36;;;;;;;;;;;21.10;97.20;;;;;;4966012;29;20061;-82
2022/07/31 02:02:17;;;;;;;;;;;21.10;97.70;;;;;;4980856;28;19930;-83
2022/07/31 02:04:46;;;;;;;;;;;21.40;97.50;;;;;;4986401;28;20420;-82
2022/07/31 02:07:15;;;;;;;;;;;21.10;97.70;;;;;;4981700;28;19930;-82
2022/07/31 02:09:50;;;;;;;;;;;21.10;97.20;;;;;;4982409;28;19926;-81
2022/07/31 02:12:52;;;;;;;;;;;21.00;97.30;;;;;;5024635;28;19925;-83
2022/07/31 02:15:21;;;;;;;;;;;21.00;98.20;;;;;;4980204;28;19942;-82
2022/07/31 02:17:51;;;;;;;;;;;21.10;98.00;;;;;;4983919;28;19936;-83
2022/07/31 02:20:25;;;;;;;;;;;20.90;97.80;;;;;;4984684;28;19930;-82
2022/07/31 02:23:04;;;;;;;;;;;20.90;98.30;;;;;;4968745;28;19926;-83
2022/07/31 02:25:45;;;;;;;;;;;20.90;98.00;;;;;;5017841;28;19933;-83
2022/07/31 02:28:49;;;;;;;;;;;20.80;97.60;;;;;;4989449;28;20214;-85
2022/07/31 02:31:20;;;;;;;;;;;21.70;98.50;;;;;;5001422;28;19926;-83
2022/07/31 02:33:49;;;;;;;;;;;20.90;98.20;;;;;;4999523;28;19933;-82
2022/07/31 02:36:21;;;;;;;;;;;20.90;98.00;;;;;;4965408;29;20327;-83
2022/07/31 02:38:56;;;;;;;;;;;21.90;98.50;;;;;;4969296;28;19941;-82
2022/07/31 02:41:30;;;;;;;;;;;20.90;97.70;;;;;;4986544;28;19934;-83
2022/07/31 02:43:58;;;;;;;;;;;21.00;98.80;;;;;;4978369;28;19941;-83
2022/07/31 02:46:26;;;;;;;;;;;20.70;97.90;;;;;;5006078;28;19955;-82
2022/07/31 02:48:55;;;;;;;;;;;20.90;98.00;;;;;;4987064;28;19926;-82
2022/07/31 02:51:23;;;;;;;;;;;20.90;98.40;;;;;;4969036;28;19930;-82
2022/07/31 02:53:53;;;;;;;;;;;20.90;98.30;;;;;;5001184;28;19935;-83
2022/07/31 02:56:24;;;;;;;;;;;20.80;98.90;;;;;;4984824;28;20143;-82
2022/07/31 02:58:52;;;;;;;;;;;20.90;99.00;;;;;;4984239;28;19930;-82
2022/07/31 03:01:34;;;;;;;;;;;20.80;99.60;;;;;;4984496;28;19936;-82
2022/07/31 03:04:07;;;;;;;;;;;20.70;99.00;;;;;;4968948;28;19937;-81
2022/07/31 03:06:35;;;;;;;;;;;20.60;99.10;;;;;;4970920;28;20009;-82
2022/07/31 03:09:03;;;;;;;;;;;20.60;99.20;;;;;;4984332;28;19982;-82
2022/07/31 03:11:35;;;;;;;;;;;20.70;99.50;;;;;;4983500;28;19926;-82
2022/07/31 03:14:04;;;;;;;;;;;20.60;99.70;;;;;;4969797;28;19935;-83
2022/07/31 03:16:33;;;;;;;;;;;20.60;99.50;;;;;;4984025;28;19930;-83
2022/07/31 03:19:03;;;;;;;;;;;18.50;99.10;;;;;;5000743;28;19937;-83
2022/07/31 03:21:31;;;;;;;;;;;20.80;99.80;;;;;;4968893;28;20387;-83
2022/07/31 03:24:00;;;;;;;;;;;20.50;99.70;;;;;;4983999;28;19926;-82
2022/07/31 03:26:29;;;;;;;;;;;20.40;99.70;;;;;;4968107;28;20280;-82
2022/07/31 03:29:00;;;;;;;;;;;20.60;99.90;;;;;;4980692;28;19933;-83
2022/07/31 03:31:29;;;;;;;;;;;20.40;99.70;;;;;;4987409;28;19926;-82
2022/07/31 03:33:58;;;;;;;;;;;20.40;99.90;;;;;;4983159;28;19925;-83
2022/07/31 03:36:30;;;;;;;;;;;20.40;99.90;;;;;;4982839;28;19926;-83
2022/07/31 03:39:00;;;;;;;;;;;20.30;99.90;;;;;;4977222;28;19956;-82
2022/07/31 03:41:38;;;;;;;;;;;20.30;99.90;;;;;;4964354;28;20011;-83
2022/07/31 03:44:07;;;;;;;;;;;20.30;99.90;;;;;;4973347;28;19926;-83
2022/07/31 03:46:41;;;;;;;;;;;20.20;99.90;;;;;;4984765;28;19946;-84
2022/07/31 03:49:09;;;;;;;;;;;20.20;99.90;;;;;;4963872;29;19930;-82
2022/07/31 03:51:38;;;;;;;;;;;20.20;99.90;;;;;;4975462;28;19926;-84
2022/07/31 03:54:06;;;;;;;;;;;20.20;99.90;;;;;;5015465;28;19926;-81
2022/07/31 03:56:47;;;;;;;;;;;20.30;99.90;;;;;;4984881;28;19933;-84
2022/07/31 03:59:19;;;;;;;;;;;20.50;99.90;;;;;;4967030;29;19938;-82
2022/07/31 04:01:49;;;;;;;;;;;20.30;99.90;;;;;;4994655;28;19926;-83
2022/07/31 04:04:48;;;;;;;;;;;20.10;99.90;;;;;;4984023;28;19923;-83
2022/07/31 04:07:16;;;;;;;;;;;20.30;99.90;;;;;;4988984;28;19932;-82
2022/07/31 04:09:47;;;;;;;;;;;20.20;99.90;;;;;;4984500;28;19930;-84
2022/07/31 04:12:15;;;;;;;;;;;20.10;99.90;;;;;;4985444;28;19930;-82
2022/07/31 04:14:51;;;;;;;;;;;20.20;99.90;;;;;;4957530;28;19933;-83
2022/07/31 04:17:20;;;;;;;;;;;19.80;99.90;;;;;;4982523;28;19940;-82
2022/07/31 04:19:48;;;;;;;;;;;20.10;99.90;;;;;;4981104;28;19933;-82
2022/07/31 04:22:16;;;;;;;;;;;20.20;99.90;;;;;;4984830;28;19936;-83
2022/07/31 04:24:45;;;;;;;;;;;20.20;99.90;;;;;;4996801;28;19926;-81
2022/07/31 04:27:25;;;;;;;;;;;20.20;99.90;;;;;;4971205;28;20267;-82
2022/07/31 04:29:54;;;;;;;;;;;20.20;99.90;;;;;;5004610;28;19930;-82
2022/07/31 04:32:22;;;;;;;;;;;20.30;99.90;;;;;;5001712;28;20221;-83
2022/07/31 04:34:59;;;;;;;;;;;20.20;99.90;;;;;;4955300;29;19940;-83
2022/07/31 04:37:28;;;;;;;;;;;20.30;99.90;;;;;;4969209;28;19936;-83
2022/07/31 04:39:58;;;;;;;;;;;20.30;99.90;;;;;;4984397;28;19927;-82
2022/07/31 04:42:26;;;;;;;;;;;20.20;99.90;;;;;;4988767;28;19929;-83
2022/07/31 04:45:11;;;;;;;;;;;20.30;99.90;;;;;;4961353;29;19930;-83
2022/07/31 04:47:39;;;;;;;;;;;20.20;99.90;;;;;;5021055;28;19926;-82
2022/07/31 04:50:09;;;;;;;;;;;20.20;99.90;;;;;;4985912;28;19926;-83
2022/07/31 04:52:37;;;;;;;;;;;20.20;99.90;;;;;;5017594;28;20171;-82
2022/07/31 04:55:10;;;;;;;;;;;20.20;99.90;;;;;;4965980;29;19927;-82
2022/07/31 04:57:39;;;;;;;;;;;20.20;99.90;;;;;;4984141;28;19930;-82
2022/07/31 05:00:09;;;;;;;;;;;20.40;99.90;;;;;;4965618;29;19926;-83
2022/07/31 05:02:39;;;;;;;;;;;20.20;99.90;;;;;;4997331;28;19926;-83
2022/07/31 05:05:09;;;;;;;;;;;20.80;99.90;;;;;;4995829;28;19937;-82
2022/07/31 05:07:41;;;;;;;;;;;20.10;99.90;;;;;;4978462;28;19936;-82
2022/07/31 05:13:02;;;;;;;;;;;20.10;99.90;;;;;;4989031;28;19927;-83
2022/07/31 05:15:32;;;;;;;;;;;20.10;99.90;;;;;;4962087;29;19930;-81
2022/07/31 05:18:00;;;;;;;;;;;20.20;99.90;;;;;;4979593;28;19937;-82
2022/07/31 05:21:06;;;;;;;;;;;20.60;99.90;;;;;;4929539;29;19933;-82
2022/07/31 05:23:58;;;;;;;;;;;20.20;99.90;;;;;;4929255;29;19927;-82
2022/07/31 05:26:44;;;;;;;;;;;20.30;99.90;;;;;;4961423;28;19942;-81
2022/07/31 05:29:12;;;;;;;;;;;20.30;99.90;;;;;;5000823;28;19941;-82
2022/07/31 05:31:40;;;;;;;;;;;20.20;99.90;;;;;;4986545;28;19930;-83
2022/07/31 05:34:32;;;;;;;;;;;20.30;99.90;;;;;;4991930;28;19934;-82
2022/07/31 05:37:00;;;;;;;;;;;20.30;99.90;;;;;;4984396;28;19926;-84
2022/07/31 05:39:35;;;;;;;;;;;20.30;99.90;;;;;;4996229;28;19970;-83
2022/07/31 05:42:24;;;;;;;;;;;20.30;99.90;;;;;;4983863;28;19936;-83
2022/07/31 05:45:24;;;;;;;;;;;20.30;99.90;;;;;;4990699;28;20154;-81
2022/07/31 05:47:52;;;;;;;;;;;18.80;99.90;;;;;;4967306;28;19926;-82
2022/07/31 05:50:20;;;;;;;;;;;20.30;99.90;;;;;;4983897;28;19926;-82
2022/07/31 05:52:51;;;;;;;;;;;20.50;99.90;;;;;;5004854;28;19930;-81
2022/07/31 05:55:46;;;;;;;;;;;20.40;99.90;;;;;;4981233;28;19933;-82
2022/07/31 05:58:58;;;;;;;;;;;20.50;99.90;;;;;;4974797;28;20304;-84
2022/07/31 06:01:26;;;;;;;;;;;20.40;99.90;;;;;;4953660;29;19942;-83
2022/07/31 06:03:56;;;;;;;;;;;20.80;99.90;;;;;;4972229;28;19926;-82
2022/07/31 06:06:37;;;;;;;;;;;20.50;99.90;;;;;;4973456;28;19937;-82
2022/07/31 06:09:15;;;;;;;;;;;20.60;99.90;;;;;;4980980;28;19934;-82
2022/07/31 06:11:46;;;;;;;;;;;20.60;99.90;;;;;;4999339;28;20454;-82
2022/07/31 06:14:14;;;;;;;;;;;20.80;99.90;;;;;;4997520;28;19930;-82
2022/07/31 06:17:17;;;;;;;;;;;20.60;99.90;;;;;;4983458;28;19941;-81
2022/07/31 06:19:46;;;;;;;;;;;20.70;99.90;;;;;;5009718;28;19965;-82
2022/07/31 06:22:13;;;;;;;;;;;20.70;99.90;;;;;;4980226;28;19978;-82
2022/07/31 06:24:41;;;;;;;;;;;20.70;99.90;;;;;;4982369;28;19930;-83
2022/07/31 06:27:10;;;;;;;;;;;20.40;99.80;;;;;;4996402;28;19933;-81
2022/07/31 06:29:58;;;;;;;;;;;20.80;99.90;;;;;;4977656;28;19926;-82
2022/07/31 06:32:26;;;;;;;;;;;20.90;99.90;;;;;;4969531;28;19933;-82
2022/07/31 06:34:54;;;;;;;;;;;21.00;99.90;;;;;;4985411;28;19930;-82
2022/07/31 06:37:22;;;;;;;;;;;21.10;99.90;;;;;;4981836;28;20260;-82
2022/07/31 06:39:51;;;;;;;;;;;21.10;99.90;;;;;;4964265;28;19942;-82
2022/07/31 06:42:43;;;;;;;;;;;20.90;99.60;;;;;;4971134;28;19945;-82
2022/07/31 06:45:17;;;;;;;;;;;21.10;99.70;;;;;;4982775;28;19926;-83
2022/07/31 06:48:31;;;;;;;;;;;21.10;99.20;;;;;;4974592;28;19937;-83
2022/07/31 06:51:07;;;;;;;;;;;21.20;99.60;;;;;;4966117;28;19930;-81
2022/07/31 06:53:56;;;;;;;;;;;21.20;99.80;;;;;;4986136;28;19934;-83
2022/07/31 06:56:23;;;;;;;;;;;22.00;99.90;;;;;;5014754;28;20363;-82
2022/07/31 06:58:52;;;;;;;;;;;21.10;99.60;;;;;;4998798;28;19937;-81
2022/07/31 07:01:20;;;;;;;;;;;21.40;99.20;;;;;;4980230;28;19934;-82
2022/07/31 07:03:48;;;;;;;;;;;21.50;99.30;;;;;;4981958;28;19926;-83
2022/07/31 07:06:15;;;;;;;;;;;21.50;99.30;;;;;;4966406;28;19926;-81
2022/07/31 07:08:47;;;;;;;;;;;21.60;98.90;;;;;;4967267;28;19933;-82
2022/07/31 07:11:20;;;;;;;;;;;21.70;98.40;;;;;;4981356;28;19930;-83
2022/07/31 07:13:48;;;;;;;;;;;21.80;98.50;;;;;;4981402;28;20096;-82
2022/07/31 07:16:44;;;;;;;;;;;21.90;98.70;;;;;;5005078;28;19937;-82
2022/07/31 07:19:12;;;;;;;;;;;22.00;97.90;;;;;;4968739;28;20018;-83
2022/07/31 07:21:42;;;;;;;;;;;22.10;97.90;;;;;;4977461;28;19930;-83
2022/07/31 07:24:10;;;;;;;;;;;22.10;97.90;;;;;;4985770;28;19930;-82
2022/07/31 07:26:45;;;;;;;;;;;22.10;97.80;;;;;;5001185;28;19937;-82
2022/07/31 07:29:13;;;;;;;;;;;22.20;98.00;;;;;;5014892;28;19930;-81
2022/07/31 07:31:43;;;;;;;;;;;22.20;98.00;;;;;;4981071;28;19926;-81
2022/07/31 07:34:11;;;;;;;;;;;21.90;97.60;;;;;;4970617;28;19926;-83
2022/07/31 07:36:39;;;;;;;;;;;22.40;97.80;;;;;;4985024;28;20117;-81
2022/07/31 07:39:28;;;;;;;;;;;24.80;98.20;;;;;;4990354;28;19931;-81
2022/07/31 07:41:56;;;;;;;;;;;22.70;97.40;;;;;;4958999;28;19937;-81
2022/07/31 07:44:23;;;;;;;;;;;22.60;97.20;;;;;;4946745;28;19930;-82
2022/07/31 07:46:52;;;;;;;;;;;22.60;97.30;;;;;;4978911;28;20333;-81
2022/07/31 07:49:20;;;;;;;;;;;22.70;97.10;;;;;;4984191;28;19952;-81
2022/07/31 07:52:12;;;;;;;;;;;22.80;96.90;;;;;;4967261;28;20437;-82
2022/07/31 07:55:01;;;;;;;;;;;22.70;96.70;;;;;;4980851;28;19930;-80
2022/07/31 07:57:48;;;;;;;;;;;22.70;96.70;;;;;;4982478;28;19926;-80
2022/07/31 08:00:27;;;;;;;;;;;22.70;96.70;;;;;;4980632;28;19930;-83
2022/07/31 08:03:00;;;;;;;;;;;24.00;97.40;;;;;;4978779;28;19927;-82
2022/07/31 08:05:48;;;;;;;;;;;22.90;96.60;;;;;;4968824;28;19937;-82
2022/07/31 08:08:16;;;;;;;;;;;23.10;96.60;;;;;;4985941;28;19942;-83
2022/07/31 08:10:47;;;;;;;;;;;23.20;96.40;;;;;;4975906;28;20664;-82
2022/07/31 08:13:22;;;;;;;;;;;23.20;96.20;;;;;;4959698;28;19930;-82
2022/07/31 08:16:19;;;;;;;;;;;23.20;95.80;;;;;;4923818;28;19934;-82
2022/07/31 08:18:50;;;;;;;;;;;22.80;96.30;;;;;;4973574;28;19934;-82
2022/07/31 08:21:19;;;;;;;;;;;22.90;96.20;;;;;;4974408;28;19934;-82
2022/07/31 08:23:47;;;;;;;;;;;22.80;95.90;;;;;;4972947;28;19934;-82
2022/07/31 08:26:17;;;;;;;;;;;23.20;96.40;;;;;;4987989;28;19930;-82
2022/07/31 08:28:47;;;;;;;;;;;22.80;96.30;;;;;;4961272;28;19942;-80
2022/07/31 08:31:21;;;;;;;;;;;22.80;96.10;;;;;;4977236;28;20331;-82
2022/07/31 08:34:09;;;;;;;;;;;22.80;96.20;;;;;;4979846;28;19926;-81
2022/07/31 08:36:57;;;;;;;;;;;22.90;95.80;;;;;;4977359;28;19930;-84
2022/07/31 08:39:25;;;;;;;;;;;23.00;95.70;;;;;;4989727;28;19934;-82
2022/07/31 08:42:05;;;;;;;;;;;23.10;95.60;;;;;;4987009;28;19941;-81
2022/07/31 08:44:41;;;;;;;;;;;23.20;95.40;;;;;;5005342;28;19934;-81
2022/07/31 08:47:09;;;;;;;;;;;23.30;95.20;;;;;;4988973;28;19933;-82
2022/07/31 08:49:45;;;;;;;;;;;23.50;94.80;;;;;;4973181;28;19926;-82
2022/07/31 08:52:18;;;;;;;;;;;23.60;94.70;;;;;;4989908;28;19934;-82
2022/07/31 08:54:55;;;;;;;;;;;23.60;94.50;;;;;;4988870;28;19941;-81
2022/07/31 08:57:25;;;;;;;;;;;23.60;94.60;;;;;;4989524;28;20077;-82
2022/07/31 09:00:04;;;;;;;;;;;23.50;94.60;;;;;;4977181;28;19927;-83
2022/07/31 09:02:32;;;;;;;;;;;21.60;94.50;;;;;;4980475;28;19927;-82
2022/07/31 09:05:21;;;;;;;;;;;23.50;95.30;;;;;;4955257;22;19934;-87
2022/07/31 09:07:49;;;;;;;;;;;23.40;94.60;;;;;;4930591;28;19985;-88
2022/07/31 09:10:20;;;;;;;;;;;23.60;94.60;;;;;;4948100;28;19934;-87
2022/07/31 09:12:49;;;;;;;;;;;23.30;94.80;;;;;;4963218;28;19941;-88
2022/07/31 09:15:22;;;;;;;;;;;23.10;94.90;;;;;;4965744;28;19934;-85
2022/07/31 09:17:54;;;;;;;;;;;23.20;94.80;;;;;;4949191;28;19934;-87
2022/07/31 09:20:29;;;;;;;;;;;23.20;94.60;;;;;;4946941;28;19934;-85
2022/07/31 09:23:08;;;;;;;;;;;23.30;94.70;;;;;;4976833;28;19949;-86
2022/07/31 09:25:56;;;;;;;;;;;23.30;94.50;;;;;;4961929;28;19937;-85
2022/07/31 09:28:35;;;;;;;;;;;23.30;94.50;;;;;;4959250;28;19938;-86
2022/07/31 09:31:03;;;;;;;;;;;23.30;94.50;;;;;;4947382;28;19949;-85
2022/07/31 09:33:57;;;;;;;;;;;23.30;94.50;;;;;;4976073;28;19957;-86
2022/07/31 09:36:48;;;;;;;;;;;23.30;94.50;;;;;;4979407;28;19950;-84
2022/07/31 09:39:35;;;;;;;;;;;23.30;94.60;;;;;;4978408;28;22142;-86
2022/07/31 09:42:47;;;;;;;;;;;23.30;94.60;;;;;;4955919;28;19937;-85
2022/07/31 09:45:24;;;;;;;;;;;23.30;94.80;;;;;;4967908;28;19926;-85
2022/07/31 09:48:11;;;;;;;;;;;23.30;94.70;;;;;;4950722;28;19930;-84
2022/07/31 09:50:52;;;;;;;;;;;23.30;94.70;;;;;;4951416;28;19922;-86
2022/07/31 09:53:20;;;;;;;;;;;23.30;94.80;;;;;;4980304;28;19937;-85
2022/07/31 09:55:52;;;;;;;;;;;23.30;94.80;;;;;;4951900;28;19957;-87
2022/07/31 09:58:20;;;;;;;;;;;23.30;94.70;;;;;;4947983;28;21134;-85
2022/07/31 10:00:50;;;;;;;;;;;23.30;94.90;;;;;;4964782;28;19933;-85
2022/07/31 10:03:19;;;;;;;;;;;23.30;94.80;;;;;;4965767;28;19942;-85
2022/07/31 10:05:49;;;;;;;;;;;23.30;94.50;;;;;;4964734;28;19926;-88
2022/07/31 10:08:18;;;;;;;;;;;23.30;94.60;;;;;;4948067;28;19941;-87
2022/07/31 10:11:04;;;;;;;;;;;23.30;94.80;;;;;;4962035;28;19930;-87
2022/07/31 10:13:49;;;;;;;;;;;23.30;94.50;;;;;;4977003;28;19934;-86
2022/07/31 10:16:18;;;;;;;;;;;23.30;94.70;;;;;;4972630;28;19934;-86
2022/07/31 10:18:50;;;;;;;;;;;23.30;94.70;;;;;;4965295;28;20289;-87
2022/07/31 10:21:58;;;;;;;;;;;23.40;94.60;;;;;;4963998;28;19954;-86
2022/07/31 10:24:31;;;;;;;;;;;23.50;94.80;;;;;;4963956;28;19930;-87
2022/07/31 10:27:01;;;;;;;;;;;23.50;94.30;;;;;;4966760;28;19950;-86
2022/07/31 10:29:40;;;;;;;;;;;23.60;94.30;;;;;;4953014;28;19934;-86
2022/07/31 10:32:09;;;;;;;;;;;23.50;94.10;;;;;;4974934;28;19933;-84
2022/07/31 10:34:57;;;;;;;;;;;23.70;94.20;;;;;;4951332;28;19945;-86
2022/07/31 10:38:02;;;;;;;;;;;23.70;94.00;;;;;;4968881;28;19953;-88
2022/07/31 10:40:51;;;;;;;;;;;23.70;94.00;;;;;;4949152;28;19926;-87
2022/07/31 10:43:19;;;;;;;;;;;23.70;93.90;;;;;;4965748;28;19926;-87
2022/07/31 10:46:34;;;;;;;;;;;23.70;93.80;;;;;;4951197;28;19926;-85
2022/07/31 10:49:37;;;;;;;;;;;23.70;93.70;;;;;;4956121;28;20369;-85
2022/07/31 10:52:28;;;;;;;;;;;23.80;93.70;;;;;;4963277;28;19926;-86
2022/07/31 10:55:21;;;;;;;;;;;24.00;93.70;;;;;;4964758;28;19934;-87
2022/07/31 10:58:15;;;;;;;;;;;24.20;93.40;;;;;;4946075;28;20317;-85
2022/07/31 11:00:50;;;;;;;;;;;24.40;93.10;;;;;;4950174;28;19933;-85
2022/07/31 11:03:40;;;;;;;;;;;24.70;93.00;;;;;;4962486;28;19930;-88
2022/07/31 11:06:40;;;;;;;;;;;24.90;92.50;;;;;;4948623;28;19937;-86
2022/07/31 11:09:27;;;;;;;;;;;25.10;92.20;;;;;;4964214;28;19934;-89
2022/07/31 11:12:23;;;;;;;;;;;25.10;92.00;;;;;;4965637;28;19978;-85
2022/07/31 11:15:23;;;;;;;;;;;25.00;91.90;;;;;;4962233;28;19981;-88
2022/07/31 11:18:14;;;;;;;;;;;25.00;91.90;;;;;;4965146;28;19933;-87
2022/07/31 11:21:04;;;;;;;;;;;24.90;91.90;;;;;;4960909;28;19933;-84
2022/07/31 11:23:59;;;;;;;;;;;24.80;92.20;;;;;;4964423;28;20037;-85
2022/07/31 11:26:30;;;;;;;;;;;24.70;92.40;;;;;;4964139;28;19931;-84
2022/07/31 11:29:08;;;;;;;;;;;24.70;92.30;;;;;;4963396;28;20532;-84
2022/07/31 11:32:00;;;;;;;;;;;24.60;92.40;;;;;;4963301;28;20382;-83
2022/07/31 11:34:28;;;;;;;;;;;24.60;92.60;;;;;;4934356;28;19981;-84
2022/07/31 11:36:55;;;;;;;;;;;24.60;92.70;;;;;;4950716;28;20029;-85
2022/07/31 11:39:26;;;;;;;;;;;24.80;92.60;;;;;;4966065;28;19930;-84
2022/07/31 11:42:03;;;;;;;;;;;24.80;92.40;;;;;;4968849;28;19926;-83
2022/07/31 11:44:34;;;;;;;;;;;25.00;92.10;;;;;;4971218;28;19930;-85
2022/07/31 11:47:01;;;;;;;;;;;25.00;92.00;;;;;;4965984;28;19969;-84
2022/07/31 11:49:59;;;;;;;;;;;25.10;91.70;;;;;;4964233;28;19930;-85
2022/07/31 11:52:26;;;;;;;;;;;25.10;91.80;;;;;;4966453;28;19926;-87
2022/07/31 11:55:05;;;;;;;;;;;25.00;91.80;;;;;;4949542;28;19933;-87
2022/07/31 11:57:37;;;;;;;;;;;25.00;91.80;;;;;;4965059;28;19938;-84
2022/07/31 12:00:20;;;;;;;;;;;25.00;91.70;;;;;;4964565;28;20681;-86
2022/07/31 12:02:56;;;;;;;;;;;24.90;91.80;;;;;;4966095;28;19934;-87
2022/07/31 12:05:24;;;;;;;;;;;24.90;92.00;;;;;;4962694;28;19936;-85
2022/07/31 12:08:06;;;;;;;;;;;24.90;91.90;;;;;;4965016;28;20183;-88
2022/07/31 12:10:34;;;;;;;;;;;24.90;91.90;;;;;;4961189;28;19926;-84
2022/07/31 12:13:01;;;;;;;;;;;24.80;92.30;;;;;;4964079;28;19933;-84
2022/07/31 12:15:29;;;;;;;;;;;24.90;92.20;;;;;;4961337;28;19933;-84
2022/07/31 12:18:00;;;;;;;;;;;25.00;92.10;;;;;;4964888;28;19930;-87
2022/07/31 12:20:31;;;;;;;;;;;25.10;92.10;;;;;;4963316;28;19945;-86
2022/07/31 12:23:04;;;;;;;;;;;25.10;92.10;;;;;;4963360;28;19949;-86
2022/07/31 12:25:42;;;;;;;;;;;25.10;91.90;;;;;;4963961;28;19926;-89
2022/07/31 12:28:11;;;;;;;;;;;25.10;92.00;;;;;;4964810;28;20073;-83
2022/07/31 12:30:39;;;;;;;;;;;25.00;92.10;;;;;;4967369;28;19933;-86
2022/07/31 12:33:09;;;;;;;;;;;25.00;92.20;;;;;;4967483;28;19937;-85
2022/07/31 12:35:39;;;;;;;;;;;25.10;92.30;;;;;;4949463;28;19926;-84
2022/07/31 12:38:24;;;;;;;;;;;25.20;92.20;;;;;;4963024;28;19938;-87
2022/07/31 12:41:12;;;;;;;;;;;25.40;92.00;;;;;;4967614;28;19930;-86
2022/07/31 12:43:42;;;;;;;;;;;25.60;91.50;;;;;;4981205;28;19934;-85
2022/07/31 12:46:19;;;;;;;;;;;25.80;91.30;;;;;;4965434;28;19926;-87
2022/07/31 12:48:47;;;;;;;;;;;26.10;91.00;;;;;;4963124;28;19933;-88
2022/07/31 12:51:17;;;;;;;;;;;26.30;90.70;;;;;;4966216;28;19926;-90
2022/07/31 12:53:46;;;;;;;;;;;26.50;90.70;;;;;;4968144;28;19926;-86
2022/07/31 12:56:14;;;;;;;;;;;26.70;90.50;;;;;;4965905;28;19934;-85
2022/07/31 12:58:41;;;;;;;;;;;26.90;90.10;;;;;;4963962;28;19941;-86
2022/07/31 13:01:09;;;;;;;;;;;27.00;90.00;;;;;;4965148;28;19930;-85
2022/07/31 13:03:36;;;;;;;;;;;27.10;89.90;;;;;;4966576;28;19926;-89
2022/07/31 13:06:13;;;;;;;;;;;27.10;89.30;;;;;;4973573;28;19950;-88
2022/07/31 13:08:42;;;;;;;;;;;27.00;88.70;;;;;;4958748;28;19926;-89
2022/07/31 13:11:10;;;;;;;;;;;26.80;88.90;;;;;;4976415;28;19949;-87
2022/07/31 13:13:37;;;;;;;;;;;26.70;88.90;;;;;;4981702;28;19930;-88
2022/07/31 13:16:05;;;;;;;;;;;26.50;89.20;;;;;;4975731;28;19926;-86
2022/07/31 13:18:34;;;;;;;;;;;26.40;89.50;;;;;;4968093;28;19926;-88
2022/07/31 13:21:02;;;;;;;;;;;26.20;89.60;;;;;;4964782;28;19934;-87
2022/07/31 13:23:29;;;;;;;;;;;26.10;89.80;;;;;;4967629;28;19930;-87
2022/07/31 13:25:58;;;;;;;;;;;25.90;90.10;;;;;;4963753;28;19934;-84
2022/07/31 13:28:26;;;;;;;;;;;25.90;90.30;;;;;;4962492;28;19950;-87
2022/07/31 13:30:53;;;;;;;;;;;25.80;90.40;;;;;;4967327;28;19949;-86
2022/07/31 13:33:21;;;;;;;;;;;25.70;90.90;;;;;;4966531;28;19933;-85
2022/07/31 13:35:49;;;;;;;;;;;25.70;90.80;;;;;;4964654;28;19957;-87
2022/07/31 13:38:19;;;;;;;;;;;25.60;90.90;;;;;;4965483;28;20626;-85
2022/07/31 13:43:33;;;;;;;;;;;25.90;90.70;;;;;;4968382;28;19933;-85
2022/07/31 13:46:02;;;;;;;;;;;26.10;90.50;;;;;;4967767;28;19937;-84
2022/07/31 13:48:30;;;;;;;;;;;26.30;90.20;;;;;;4966772;28;19934;-89
2022/07/31 13:50:58;;;;;;;;;;;26.40;89.90;;;;;;4932846;28;19930;-84
2022/07/31 13:53:25;;;;;;;;;;;26.40;90.00;;;;;;4965671;28;20059;-85
2022/07/31 13:55:53;;;;;;;;;;;26.40;90.00;;;;;;4964803;28;19953;-85
2022/07/31 13:58:21;;;;;;;;;;;26.40;90.00;;;;;;4964837;28;19934;-86
2022/07/31 14:00:49;;;;;;;;;;;26.30;89.80;;;;;;4966420;28;19945;-84
2022/07/31 14:03:17;;;;;;;;;;;26.30;90.20;;;;;;4966537;28;20321;-85
2022/07/31 14:05:47;;;;;;;;;;;26.30;90.10;;;;;;4966114;28;19937;-86
2022/07/31 14:08:16;;;;;;;;;;;26.30;89.70;;;;;;4964264;28;19926;-83
2022/07/31 14:11:03;;;;;;;;;;;26.30;89.40;;;;;;4976487;28;20294;-83
2022/07/31 14:13:40;;;;;;;;;;;26.30;90.00;;;;;;4983439;28;19930;-86
2022/07/31 14:16:08;;;;;;;;;;;26.40;89.90;;;;;;4977655;28;20029;-88
2022/07/31 14:18:37;;;;;;;;;;;26.50;89.90;;;;;;4970852;28;19941;-86
2022/07/31 14:21:06;;;;;;;;;;;26.60;89.60;;;;;;4967830;28;19926;-84
2022/07/31 14:23:33;;;;;;;;;;;26.60;88.90;;;;;;4966879;28;19937;-86
2022/07/31 14:26:07;;;;;;;;;;;26.70;88.90;;;;;;4968380;28;19936;-84
2022/07/31 14:28:35;;;;;;;;;;;26.80;89.70;;;;;;4964714;28;19941;-85
2022/07/31 14:31:03;;;;;;;;;;;27.00;89.20;;;;;;4965408;28;19934;-85
2022/07/31 14:33:30;;;;;;;;;;;27.30;88.70;;;;;;4963444;28;19945;-87
2022/07/31 14:36:00;;;;;;;;;;;27.60;88.10;;;;;;4966042;28;20114;-88
2022/07/31 14:38:27;;;;;;;;;;;27.50;86.40;;;;;;4970991;28;19926;-84
2022/07/31 14:40:55;;;;;;;;;;;28.20;85.50;;;;;;4977044;28;19938;-85
2022/07/31 14:43:23;;;;;;;;;;;28.50;85.20;;;;;;4971531;28;19930;-84
2022/07/31 14:45:50;;;;;;;;;;;28.90;84.20;;;;;;4966556;28;20337;-85
2022/07/31 14:48:18;;;;;;;;;;;29.30;83.80;;;;;;4966055;28;19945;-88
2022/07/31 14:50:46;;;;;;;;;;;29.40;83.70;;;;;;4964575;28;20321;-86
2022/07/31 14:53:13;;;;;;;;;;;29.30;82.20;;;;;;4967849;28;19942;-88
2022/07/31 14:55:41;;;;;;;;;;;29.20;82.50;;;;;;4965747;28;20364;-86
2022/07/31 14:58:09;;;;;;;;;;;28.80;82.70;;;;;;4964106;28;20406;-86
2022/07/31 15:00:36;;;;;;;;;;;29.30;83.10;;;;;;4966990;28;19926;-86
2022/07/31 15:03:03;;;;;;;;;;;29.70;81.90;;;;;;4947462;28;19934;-85
2022/07/31 15:05:31;;;;;;;;;;;29.90;81.10;;;;;;4946887;28;19941;-85